createdAt,value
2023-03-16T00:00:21.633Z,8.30
2023-03-16T00:02:49.029Z,5.78
2023-03-16T00:05:16.239Z,4.30
2023-03-16T00:07:43.912Z,3.97
2023-03-16T00:10:13.318Z,4.00
2023-03-16T00:12:43.753Z,3.60
2023-03-16T00:15:12.793Z,3.45
2023-03-16T00:17:40.111Z,4.28
2023-03-16T00:20:07.885Z,3.47
2023-03-16T00:22:35.279Z,3.60
2023-03-16T00:25:02.624Z,3.93
2023-03-16T00:27:29.979Z,4.33
2023-03-16T00:29:57.381Z,4.82
2023-03-16T00:32:32.155Z,4.30
2023-03-16T00:35:00.305Z,4.55
2023-03-16T00:37:29.062Z,3.90
2023-03-16T00:40:00.679Z,3.95
2023-03-16T00:42:31.583Z,3.63
2023-03-16T00:45:01.830Z,4.10
2023-03-16T00:47:33.075Z,3.72
2023-03-16T00:50:01.938Z,3.50
2023-03-16T00:52:30.550Z,4.13
2023-03-16T00:54:58.706Z,3.47
2023-03-16T00:57:28.852Z,4.32
2023-03-16T00:59:56.612Z,3.65
2023-03-16T01:02:24.849Z,4.00
2023-03-16T01:04:54.912Z,3.67
2023-03-16T01:07:23.146Z,4.30
2023-03-16T01:09:51.421Z,4.75
2023-03-16T01:12:20.241Z,3.60
2023-03-16T01:14:48.337Z,3.83
2023-03-16T01:17:17.750Z,4.47
2023-03-16T01:19:45.994Z,4.65
2023-03-16T01:24:41.384Z,5.65
2023-03-16T01:27:09.444Z,5.82
2023-03-16T01:29:38.110Z,5.55
2023-03-16T01:34:34.988Z,4.78
2023-03-16T01:37:02.722Z,3.97
2023-03-16T01:39:45.003Z,4.03
2023-03-16T01:44:58.097Z,4.22
2023-03-16T01:47:38.380Z,3.67
2023-03-16T01:50:08.439Z,4.40
2023-03-16T01:52:40.330Z,4.75
2023-03-16T01:55:13.395Z,6.63
2023-03-16T01:57:46.806Z,9.60
2023-03-16T02:00:23.708Z,10.02
2023-03-16T02:03:17.829Z,7.28
2023-03-16T02:06:13.218Z,6.05
2023-03-16T02:08:47.377Z,5.65
2023-03-16T02:11:18.459Z,4.00
2023-03-16T02:14:12.578Z,4.25
2023-03-16T02:16:42.020Z,4.13
2023-03-16T02:19:17.073Z,4.97
2023-03-16T02:21:56.064Z,4.50
2023-03-16T02:24:24.071Z,7.10
2023-03-16T02:27:02.271Z,7.10
2023-03-16T02:29:58.314Z,4.85
2023-03-16T02:32:30.811Z,3.40
2023-03-16T02:35:01.397Z,3.45
2023-03-16T02:37:29.159Z,3.55
2023-03-16T02:39:56.677Z,4.10
2023-03-16T02:42:26.790Z,4.00
2023-03-16T02:45:00.550Z,3.53
2023-03-16T02:47:44.315Z,3.58
2023-03-16T02:50:13.304Z,3.30
2023-03-16T02:52:42.080Z,3.05
2023-03-16T02:55:09.927Z,3.80
2023-03-16T02:57:37.917Z,2.97
2023-03-16T03:00:19.274Z,3.50
2023-03-16T03:02:52.771Z,3.10
2023-03-16T03:05:20.569Z,3.22
2023-03-16T03:07:48.193Z,2.80
2023-03-16T03:10:15.813Z,2.50
2023-03-16T03:12:43.181Z,2.70
2023-03-16T03:15:11.030Z,2.83
2023-03-16T03:17:46.859Z,2.85
2023-03-16T03:20:17.131Z,2.97
2023-03-16T03:22:50.058Z,3.50
2023-03-16T03:25:18.963Z,2.70
2023-03-16T03:27:48.425Z,2.88
2023-03-16T03:30:21.834Z,2.90
2023-03-16T03:32:49.454Z,3.42
2023-03-16T03:35:18.982Z,2.40
2023-03-16T03:37:46.293Z,3.00
2023-03-16T03:40:18.259Z,2.80
2023-03-16T03:42:49.105Z,2.85
2023-03-16T03:45:17.022Z,2.45
2023-03-16T03:47:44.836Z,2.90
2023-03-16T03:50:17.833Z,3.00
2023-03-16T03:53:03.617Z,2.63
2023-03-16T03:55:34.480Z,3.17
2023-03-16T03:58:01.894Z,2.80
2023-03-16T04:00:29.848Z,2.97
2023-03-16T04:02:57.330Z,2.92
2023-03-16T04:05:32.166Z,3.00
2023-03-16T04:07:59.602Z,3.72
2023-03-16T04:10:30.169Z,2.87
2023-03-16T04:12:59.923Z,2.65
2023-03-16T04:15:33.057Z,3.10
2023-03-16T04:18:18.293Z,2.88
2023-03-16T04:20:45.866Z,2.67
2023-03-16T04:23:17.269Z,2.70
2023-03-16T04:25:47.037Z,2.88
2023-03-16T04:28:18.071Z,2.45
2023-03-16T04:30:47.905Z,2.50
2023-03-16T04:33:19.607Z,2.63
2023-03-16T04:35:46.983Z,2.22
2023-03-16T04:38:15.874Z,2.42
2023-03-16T04:40:58.074Z,2.50
2023-03-16T04:43:34.559Z,2.30
2023-03-16T04:46:08.460Z,2.50
2023-03-16T04:48:36.942Z,2.47
2023-03-16T04:51:06.262Z,2.63
2023-03-16T04:53:37.981Z,3.05
2023-03-16T04:56:19.485Z,2.67
2023-03-16T04:58:53.803Z,2.35
2023-03-16T05:01:24.323Z,3.15
2023-03-16T05:03:57.510Z,2.63
2023-03-16T05:06:26.065Z,2.63
2023-03-16T05:08:53.312Z,2.50
2023-03-16T05:11:20.893Z,2.83
2023-03-16T05:13:57.288Z,2.42
2023-03-16T05:16:26.204Z,2.50
2023-03-16T05:18:53.747Z,2.65
2023-03-16T05:21:20.983Z,2.20
2023-03-16T05:23:55.211Z,2.40
2023-03-16T05:26:22.405Z,3.20
2023-03-16T05:28:50.343Z,3.28
2023-03-16T05:31:19.430Z,5.35
2023-03-16T05:33:53.785Z,4.55
2023-03-16T05:36:21.754Z,4.85
2023-03-16T05:38:52.973Z,4.00
2023-03-16T05:41:30.291Z,2.78
2023-03-16T05:44:24.861Z,3.00
2023-03-16T05:47:18.154Z,3.13
2023-03-16T05:49:50.491Z,2.90
2023-03-16T05:52:31.003Z,2.70
2023-03-16T05:55:01.172Z,2.70
2023-03-16T05:57:29.657Z,2.65
2023-03-16T05:59:58.612Z,2.65
2023-03-16T06:02:26.967Z,2.80
2023-03-16T06:07:22.339Z,2.42
2023-03-16T06:09:53.637Z,3.15
2023-03-16T06:12:20.931Z,2.70
2023-03-16T06:14:48.301Z,3.20
2023-03-16T06:17:16.256Z,2.78
2023-03-16T06:19:43.589Z,2.27
2023-03-16T06:22:11.110Z,2.60
2023-03-16T06:24:39.414Z,2.53
2023-03-16T06:27:07.190Z,3.08
2023-03-16T06:29:44.494Z,2.70
2023-03-16T06:32:12.004Z,2.90
2023-03-16T06:34:40.502Z,3.20
2023-03-16T06:37:08.318Z,3.03
2023-03-16T06:39:35.630Z,3.43
2023-03-16T06:42:04.705Z,4.35
2023-03-16T06:44:33.002Z,3.83
2023-03-16T06:47:05.716Z,3.38
2023-03-16T06:49:33.083Z,3.85
2023-03-16T06:52:03.452Z,3.95
2023-03-16T06:54:35.425Z,3.28
2023-03-16T06:57:04.159Z,3.92
2023-03-16T06:59:31.505Z,3.45
2023-03-16T07:01:58.948Z,3.17
2023-03-16T07:04:26.233Z,3.00
2023-03-16T07:06:54.035Z,2.88
2023-03-16T07:09:22.141Z,3.35
2023-03-16T07:11:49.445Z,3.80
2023-03-16T07:14:17.789Z,3.50
2023-03-16T07:16:45.222Z,3.03
2023-03-16T07:19:12.432Z,3.05
2023-03-16T07:21:40.978Z,2.80
2023-03-16T07:24:16.129Z,2.80
2023-03-16T07:26:43.408Z,3.20
2023-03-16T07:29:14.507Z,2.90
2023-03-16T07:31:41.972Z,3.38
2023-03-16T07:34:15.299Z,3.03
2023-03-16T07:36:49.729Z,3.85
2023-03-16T07:39:17.879Z,3.03
2023-03-16T07:41:46.704Z,3.17
2023-03-16T07:44:16.489Z,3.88
2023-03-16T07:46:47.963Z,3.30
2023-03-16T07:49:16.898Z,3.20
2023-03-16T07:51:45.511Z,3.53
2023-03-16T07:54:14.082Z,2.45
2023-03-16T07:56:48.691Z,3.35
2023-03-16T07:59:27.536Z,3.17
2023-03-16T08:01:54.793Z,3.30
2023-03-16T08:04:22.464Z,3.60
2023-03-16T08:07:00.295Z,3.35
2023-03-16T08:09:35.952Z,3.05
2023-03-16T08:12:07.325Z,3.55
2023-03-16T08:14:37.063Z,3.38
2023-03-16T08:17:15.793Z,3.42
2023-03-16T08:19:44.384Z,2.80
2023-03-16T08:22:12.587Z,3.17
2023-03-16T08:24:43.929Z,3.42
2023-03-16T08:27:13.392Z,3.60
2023-03-16T08:29:44.735Z,3.53
2023-03-16T08:32:16.121Z,3.40
2023-03-16T08:37:15.914Z,2.55
2023-03-16T08:39:43.965Z,3.20
2023-03-16T08:42:16.867Z,3.35
2023-03-16T08:44:48.605Z,3.67
2023-03-16T08:47:16.225Z,3.70
2023-03-16T08:49:44.946Z,3.60
2023-03-16T08:52:16.089Z,4.07
2023-03-16T08:54:59.726Z,3.83
2023-03-16T08:57:30.565Z,4.78
2023-03-16T08:59:57.805Z,4.00
2023-03-16T09:02:25.811Z,4.10
2023-03-16T09:04:53.129Z,3.95
2023-03-16T09:07:20.670Z,3.90
2023-03-16T09:09:47.909Z,4.22
2023-03-16T09:12:15.149Z,4.72
2023-03-16T09:14:42.513Z,4.45
2023-03-16T09:17:11.940Z,3.77
2023-03-16T09:20:03.133Z,5.43
2023-03-16T09:22:26.495Z,5.05
2023-03-16T09:24:53.753Z,5.28
2023-03-16T09:27:21.181Z,4.82
2023-03-16T09:29:49.714Z,5.27
2023-03-16T09:32:17.031Z,4.60
2023-03-16T09:34:44.948Z,3.55
2023-03-16T09:37:12.285Z,3.72
2023-03-16T09:39:39.797Z,3.35
2023-03-16T09:42:10.332Z,3.33
2023-03-16T09:45:30.399Z,3.50
2023-03-16T09:48:02.157Z,3.33
2023-03-16T09:50:47.575Z,3.22
2023-03-16T09:53:34.393Z,3.10
2023-03-16T09:56:16.789Z,4.13
2023-03-16T09:58:44.036Z,3.40
2023-03-16T10:02:04.516Z,3.42
2023-03-16T10:05:12.882Z,3.80
2023-03-16T10:08:10.455Z,4.13
2023-03-16T10:10:43.551Z,3.20
2023-03-16T10:13:39.527Z,3.65
2023-03-16T10:16:20.594Z,4.03
2023-03-16T10:18:54.103Z,4.32
2023-03-16T10:21:24.925Z,4.22
2023-03-16T10:23:55.333Z,4.55
2023-03-16T10:26:36.453Z,4.60
2023-03-16T10:29:12.508Z,4.68
2023-03-16T10:31:41.646Z,5.18
2023-03-16T10:34:10.964Z,4.80
2023-03-16T10:36:45.487Z,5.10
2023-03-16T10:39:16.529Z,3.97
2023-03-16T10:41:54.424Z,3.53
2023-03-16T10:44:28.695Z,4.03
2023-03-16T10:47:08.472Z,3.70
2023-03-16T10:49:44.637Z,3.95
2023-03-16T10:52:18.004Z,3.97
2023-03-16T10:54:51.934Z,2.50
2023-03-16T10:57:36.904Z,3.38
2023-03-16T11:00:23.508Z,2.70
2023-03-16T11:02:54.526Z,3.45
2023-03-16T11:05:34.713Z,4.10
2023-03-16T11:08:27.448Z,3.53
2023-03-16T11:10:58.956Z,3.88
2023-03-16T11:13:34.753Z,3.00
2023-03-16T11:16:42.793Z,2.97
2023-03-16T11:19:19.008Z,3.65
2023-03-16T11:22:12.176Z,3.25
2023-03-16T11:25:04.397Z,2.92
2023-03-16T11:28:13.099Z,3.55
2023-03-16T11:30:55.401Z,2.70
2023-03-16T11:33:23.291Z,3.08
2023-03-16T11:36:27.979Z,2.97
2023-03-16T11:39:10.229Z,2.80
2023-03-16T11:41:55.241Z,3.30
2023-03-16T11:44:40.493Z,3.78
2023-03-16T11:48:06.919Z,2.70
2023-03-16T11:51:12.837Z,2.90
2023-03-16T11:53:46.860Z,2.70
2023-03-16T11:56:33.200Z,2.40
2023-03-16T12:00:01.081Z,3.80
2023-03-16T12:02:34.118Z,3.53
2023-03-16T12:05:43.846Z,4.00
2023-03-16T12:08:27.520Z,3.92
2023-03-16T12:11:10.360Z,4.00
2023-03-16T12:14:16.704Z,3.90
2023-03-16T12:17:15.948Z,4.40
2023-03-16T12:20:05.709Z,3.53
2023-03-16T12:25:22.362Z,4.18
2023-03-16T12:27:54.620Z,4.63
2023-03-16T12:30:49.160Z,3.92
2023-03-16T12:33:53.119Z,4.20
2023-03-16T12:37:02.295Z,3.55
2023-03-16T12:40:10.837Z,3.30
2023-03-16T12:43:02.886Z,3.70
2023-03-16T12:45:42.592Z,3.38
2023-03-16T12:48:32.518Z,3.60
2023-03-16T12:51:03.800Z,3.50
2023-03-16T12:54:17.770Z,2.88
2023-03-16T12:56:49.065Z,3.88
2023-03-16T12:59:24.898Z,2.95
2023-03-16T13:01:58.072Z,3.65
2023-03-16T13:04:35.831Z,4.35
2023-03-16T13:07:26.294Z,4.15
2023-03-16T13:10:02.428Z,4.50
2023-03-16T13:12:37.067Z,3.95
2023-03-16T13:15:23.654Z,4.20
2023-03-16T13:18:10.238Z,4.57
2023-03-16T13:20:58.367Z,4.50
2023-03-16T13:23:46.665Z,5.00
2023-03-16T13:26:16.128Z,5.28
2023-03-16T13:28:51.069Z,4.38
2023-03-16T13:31:34.800Z,3.90
2023-03-16T13:34:03.721Z,3.95
2023-03-16T13:36:32.887Z,3.47
2023-03-16T13:39:19.396Z,3.58
2023-03-16T13:42:03.457Z,3.30
2023-03-16T13:44:32.325Z,4.60
2023-03-16T13:47:07.647Z,4.38
2023-03-16T13:50:03.604Z,3.63
2023-03-16T13:52:35.946Z,4.07
2023-03-16T13:55:16.389Z,4.25
2023-03-16T13:57:45.709Z,2.95
2023-03-16T14:00:20.374Z,4.25
2023-03-16T14:02:56.392Z,3.45
2023-03-16T14:05:32.267Z,3.42
2023-03-16T14:08:01.129Z,2.70
2023-03-16T14:10:34.800Z,3.22
2023-03-16T14:13:36.298Z,3.78
2023-03-16T14:16:11.263Z,3.58
2023-03-16T14:19:24.692Z,2.97
2023-03-16T14:21:52.441Z,3.95
2023-03-16T14:24:37.236Z,4.63
2023-03-16T14:27:39.567Z,4.20
2023-03-16T14:30:27.891Z,4.43
2023-03-16T14:33:21.847Z,3.75
2023-03-16T14:35:56.790Z,4.40
2023-03-16T14:38:36.401Z,4.20
2023-03-16T14:41:12.326Z,4.13
2023-03-16T14:43:54.781Z,4.40
2023-03-16T14:46:37.790Z,4.55
2023-03-16T14:49:21.158Z,4.20
2023-03-16T14:51:52.834Z,4.90
2023-03-16T14:54:22.550Z,4.32
2023-03-16T14:56:58.695Z,3.05
2023-03-16T14:59:26.331Z,5.75
2023-03-16T15:01:54.928Z,5.95
2023-03-16T15:04:31.494Z,4.90
2023-03-16T15:06:59.213Z,4.50
2023-03-16T15:09:43.615Z,4.88
2023-03-16T15:12:20.014Z,6.68
2023-03-16T15:15:07.094Z,6.30
2023-03-16T15:17:34.406Z,7.20
2023-03-16T15:20:01.689Z,9.07
2023-03-16T15:25:39.575Z,8.80
2023-03-16T15:28:17.668Z,7.13
2023-03-16T15:30:48.476Z,7.68
2023-03-16T15:33:16.047Z,9.77
2023-03-16T15:35:44.518Z,10.02
2023-03-16T15:38:24.145Z,10.43
2023-03-16T15:40:53.339Z,10.35
2023-03-16T15:43:29.080Z,11.05
2023-03-16T15:45:59.003Z,8.38
2023-03-16T15:48:27.201Z,9.82
2023-03-16T15:51:23.463Z,10.45
2023-03-16T15:53:57.141Z,10.95
2023-03-16T15:56:30.338Z,13.77
2023-03-16T15:59:01.229Z,14.20
2023-03-16T16:01:35.046Z,13.05
2023-03-16T16:04:03.685Z,9.90
2023-03-16T16:06:32.083Z,10.05
2023-03-16T16:11:28.399Z,13.05
2023-03-16T16:13:57.998Z,11.18
2023-03-16T16:16:29.153Z,10.18
2023-03-16T16:18:57.110Z,12.52
2023-03-16T16:21:29.247Z,11.98
2023-03-16T16:23:57.060Z,9.40
2023-03-16T16:26:37.652Z,10.07
2023-03-16T16:29:17.272Z,9.98
2023-03-16T16:31:44.759Z,9.15
2023-03-16T16:34:18.203Z,11.15
2023-03-16T16:36:45.770Z,11.27
2023-03-16T16:39:13.103Z,10.10
2023-03-16T16:41:42.683Z,8.98
2023-03-16T16:44:24.633Z,10.05
2023-03-16T16:46:53.941Z,11.60
2023-03-16T16:49:30.977Z,10.07
2023-03-16T16:51:59.344Z,10.73
2023-03-16T16:54:31.308Z,8.93
2023-03-16T16:57:01.397Z,10.43
2023-03-16T16:59:37.150Z,7.75
2023-03-16T17:02:28.591Z,8.07
2023-03-16T17:04:57.092Z,8.20
2023-03-16T17:07:25.017Z,8.88
2023-03-16T17:09:52.315Z,7.53
2023-03-16T17:12:23.260Z,8.38
2023-03-16T17:14:51.060Z,9.25
2023-03-16T17:17:18.934Z,8.10
2023-03-16T17:19:47.191Z,7.90
2023-03-16T17:22:28.708Z,7.03
2023-03-16T17:24:56.043Z,7.97
2023-03-16T17:27:32.339Z,7.50
2023-03-16T17:29:59.656Z,8.00
2023-03-16T17:32:26.961Z,9.32
2023-03-16T17:34:54.332Z,8.77
2023-03-16T17:37:22.757Z,7.88
2023-03-16T17:39:50.175Z,5.88
2023-03-16T17:42:19.946Z,7.85
2023-03-16T17:44:50.933Z,7.07
2023-03-16T17:47:25.575Z,7.28
2023-03-16T17:49:53.776Z,6.40
2023-03-16T17:52:25.563Z,7.82
2023-03-16T17:54:54.249Z,6.50
2023-03-16T17:57:29.477Z,5.93
2023-03-16T17:59:57.258Z,5.97
2023-03-16T18:02:37.578Z,6.10
2023-03-16T18:05:08.904Z,5.53
2023-03-16T18:07:36.504Z,6.00
2023-03-16T18:10:03.831Z,6.33
2023-03-16T18:12:31.968Z,5.95
2023-03-16T18:14:59.292Z,6.03
2023-03-16T18:17:32.559Z,5.78
2023-03-16T18:19:59.976Z,5.68
2023-03-16T18:22:28.033Z,7.47
2023-03-16T18:24:56.009Z,6.20
2023-03-16T18:27:23.260Z,6.15
2023-03-16T18:29:50.664Z,6.95
2023-03-16T18:32:26.425Z,6.68
2023-03-16T18:34:54.434Z,6.70
2023-03-16T18:37:28.123Z,6.60
2023-03-16T18:39:55.533Z,6.18
2023-03-16T18:42:26.435Z,6.50
2023-03-16T18:44:54.002Z,6.68
2023-03-16T18:47:24.630Z,6.88
2023-03-16T18:49:54.245Z,5.88
2023-03-16T18:52:29.310Z,6.07
2023-03-16T18:54:58.430Z,5.60
2023-03-16T18:57:28.567Z,6.22
2023-03-16T18:59:56.055Z,5.78
2023-03-16T19:02:31.886Z,5.97
2023-03-16T19:05:03.207Z,5.70
2023-03-16T19:07:37.686Z,5.65
2023-03-16T19:10:29.048Z,5.15
2023-03-16T19:12:56.719Z,5.50
2023-03-16T19:15:31.837Z,5.95
2023-03-16T19:17:59.972Z,4.90
2023-03-16T19:20:32.144Z,4.82
2023-03-16T19:23:16.314Z,4.93
2023-03-16T19:25:43.865Z,4.93
2023-03-16T19:28:37.448Z,5.53
2023-03-16T19:31:13.540Z,5.32
2023-03-16T19:33:41.148Z,4.88
2023-03-16T19:36:33.714Z,5.80
2023-03-16T19:39:01.338Z,5.70
2023-03-16T19:41:37.785Z,5.07
2023-03-16T19:44:20.824Z,5.45
2023-03-16T19:46:49.902Z,5.22
2023-03-16T19:49:27.458Z,4.93
2023-03-16T19:51:55.916Z,4.97
2023-03-16T19:54:33.516Z,5.63
2023-03-16T19:57:10.360Z,4.50
2023-03-16T19:59:38.175Z,4.30
2023-03-16T20:02:25.302Z,4.88
2023-03-16T20:04:54.779Z,4.38
2023-03-16T20:07:22.578Z,3.78
2023-03-16T20:09:50.891Z,3.88
2023-03-16T20:12:26.332Z,3.97
2023-03-16T20:14:55.633Z,3.35
2023-03-16T20:17:29.415Z,3.78
2023-03-16T20:19:57.772Z,3.22
2023-03-16T20:24:55.974Z,3.30
2023-03-16T20:27:24.359Z,3.13
2023-03-16T20:32:23.492Z,2.38
2023-03-16T20:34:51.530Z,2.30
2023-03-16T20:37:27.167Z,2.65
2023-03-16T20:39:57.719Z,2.30
2023-03-16T20:42:32.575Z,2.60
2023-03-16T20:45:00.409Z,2.00
2023-03-16T20:47:27.906Z,1.90
2023-03-16T20:49:59.245Z,2.03
2023-03-16T20:52:30.817Z,2.25
2023-03-16T20:54:58.865Z,1.92
2023-03-16T20:57:29.285Z,1.90
2023-03-16T20:59:56.691Z,2.05
2023-03-16T21:02:35.404Z,2.17
2023-03-16T21:05:08.135Z,1.92
2023-03-16T21:07:35.402Z,1.90
2023-03-16T21:10:02.755Z,1.77
2023-03-16T21:12:36.568Z,1.90
2023-03-16T21:15:17.920Z,1.67
2023-03-16T21:17:45.627Z,1.58
2023-03-16T21:20:21.125Z,1.67
2023-03-16T21:22:48.488Z,1.73
2023-03-16T21:25:37.052Z,1.65
2023-03-16T21:28:05.627Z,1.83
2023-03-16T21:30:40.758Z,2.05
2023-03-16T21:33:30.416Z,1.92
2023-03-16T21:35:59.821Z,2.03
2023-03-16T21:38:30.013Z,2.00
2023-03-16T21:40:58.551Z,1.92
2023-03-16T21:43:26.951Z,2.00
2023-03-16T21:48:30.522Z,2.20
2023-03-16T21:50:58.034Z,2.30
2023-03-16T21:53:29.328Z,2.00
2023-03-16T21:55:57.839Z,1.90
2023-03-16T21:58:25.444Z,2.50
2023-03-16T22:00:55.019Z,2.27
2023-03-16T22:03:50.366Z,2.38
2023-03-16T22:06:24.649Z,2.67
2023-03-16T22:08:52.512Z,2.20
2023-03-16T22:11:25.037Z,2.40
2023-03-16T22:13:52.767Z,2.83
2023-03-16T22:16:23.688Z,3.03
2023-03-16T22:18:56.502Z,2.85
2023-03-16T22:21:29.246Z,3.28
2023-03-16T22:23:57.904Z,2.90
2023-03-16T22:26:26.480Z,3.50
2023-03-16T22:28:55.290Z,3.22
2023-03-16T22:31:40.709Z,3.20
2023-03-16T22:34:17.412Z,3.13
2023-03-16T22:36:44.685Z,3.05
2023-03-16T22:39:13.151Z,3.17
2023-03-16T22:41:40.428Z,2.80
2023-03-16T22:44:23.816Z,3.20
2023-03-16T22:46:51.600Z,3.05
2023-03-16T22:49:28.652Z,2.90
2023-03-16T22:51:58.034Z,2.92
2023-03-16T22:54:28.755Z,3.15
2023-03-16T22:56:56.633Z,2.90
2023-03-16T22:59:27.306Z,3.03
2023-03-16T23:01:54.826Z,2.88
2023-03-16T23:04:30.418Z,2.95
2023-03-16T23:06:58.690Z,2.83
2023-03-16T23:09:26.416Z,2.90
2023-03-16T23:11:55.375Z,2.65
2023-03-16T23:14:27.421Z,2.90
2023-03-16T23:16:54.855Z,3.13
2023-03-16T23:19:30.863Z,3.10
2023-03-16T23:22:05.789Z,2.63
2023-03-16T23:24:34.365Z,2.63
2023-03-16T23:27:02.859Z,2.70
2023-03-16T23:29:31.028Z,2.85
2023-03-16T23:31:58.442Z,2.42
2023-03-16T23:34:26.709Z,3.10
2023-03-16T23:36:54.125Z,3.05
2023-03-16T23:39:21.353Z,2.93
2023-03-16T23:41:49.949Z,3.25
2023-03-16T23:44:22.396Z,3.30
2023-03-16T23:46:50.301Z,3.33
2023-03-16T23:49:41.539Z,3.92
2023-03-16T23:52:12.359Z,3.05
2023-03-16T23:54:39.585Z,3.08
2023-03-16T23:57:06.860Z,3.17
2023-03-16T23:59:34.039Z,3.38
